createdAt,value
2022-11-23T00:01:13.807Z,97482.34
2022-11-23T00:03:40.530Z,97481.23
2022-11-23T00:06:07.390Z,97478.25
2022-11-23T00:08:34.153Z,97473.70
2022-11-23T00:11:01.284Z,97474.05
2022-11-23T00:13:28.094Z,97474.21
2022-11-23T00:15:55.002Z,97478.74
2022-11-23T00:18:21.716Z,97467.84
2022-11-23T00:20:49.243Z,97471.71
2022-11-23T00:23:16.077Z,97472.98
2022-11-23T00:25:46.361Z,97471.65
2022-11-23T00:28:13.187Z,97468.79
2022-11-23T00:30:39.851Z,97473.27
2022-11-23T00:33:06.770Z,97481.35
2022-11-23T00:35:33.784Z,97482.83
2022-11-23T00:38:01.339Z,97488.51
2022-11-23T00:40:28.060Z,97484.06
2022-11-23T00:42:54.798Z,97481.95
2022-11-23T00:45:22.333Z,97487.48
2022-11-23T00:47:49.023Z,97489.02
2022-11-23T00:50:16.450Z,97484.12
2022-11-23T00:52:43.190Z,97482.44
2022-11-23T00:55:09.921Z,97482.51
2022-11-23T00:57:37.586Z,97485.55
2022-11-23T01:00:06.052Z,97486.32
2022-11-23T01:02:35.214Z,97482.38
2022-11-23T01:05:03.360Z,97476.39
2022-11-23T01:07:31.233Z,97478.01
2022-11-23T01:09:58.331Z,97477.35
2022-11-23T01:12:25.066Z,97472.88
2022-11-23T01:14:54.226Z,97466.99
2022-11-23T01:17:22.329Z,97468.68
2022-11-23T01:19:49.171Z,97465.77
2022-11-23T01:22:15.930Z,97466.50
2022-11-23T01:24:42.711Z,97463.11
2022-11-23T01:27:09.483Z,97460.45
2022-11-23T01:29:36.189Z,97462.78
2022-11-23T01:32:03.020Z,97459.45
2022-11-23T01:34:29.717Z,97455.05
2022-11-23T01:36:59.262Z,97455.98
2022-11-23T01:39:28.350Z,97449.20
2022-11-23T01:41:55.658Z,97450.33
2022-11-23T01:44:26.818Z,97452.00
2022-11-23T01:46:55.542Z,97447.70
2022-11-23T01:49:24.065Z,97451.70
2022-11-23T01:51:54.799Z,97452.86
2022-11-23T01:54:28.432Z,97457.72
2022-11-23T01:57:02.694Z,97457.63
2022-11-23T01:59:31.247Z,97465.15
2022-11-23T02:01:58.637Z,97471.20
2022-11-23T02:04:31.392Z,97471.73
2022-11-23T02:07:01.121Z,97475.73
2022-11-23T02:09:31.743Z,97479.65
2022-11-23T02:11:59.218Z,97478.30
2022-11-23T02:14:26.337Z,97482.84
2022-11-23T02:16:55.581Z,97479.40
2022-11-23T02:19:25.641Z,97476.40
2022-11-23T02:21:53.970Z,97478.78
2022-11-23T02:24:26.924Z,97483.10
2022-11-23T02:26:53.966Z,97477.01
2022-11-23T02:29:25.613Z,97484.98
2022-11-23T02:31:53.374Z,97482.99
2022-11-23T02:34:22.883Z,97480.98
2022-11-23T02:36:53.714Z,97477.45
2022-11-23T02:39:37.675Z,97477.05
2022-11-23T02:42:05.622Z,97475.73
2022-11-23T02:44:55.608Z,97482.42
2022-11-23T02:47:22.426Z,97483.10
2022-11-23T02:49:50.121Z,97485.70
2022-11-23T02:52:18.989Z,97482.62
2022-11-23T02:54:46.241Z,97485.32
2022-11-23T02:57:14.174Z,97483.98
2022-11-23T02:59:44.398Z,97488.83
2022-11-23T03:02:11.593Z,97486.16
2022-11-23T03:04:38.596Z,97483.10
2022-11-23T03:07:05.400Z,97484.03
2022-11-23T03:09:33.017Z,97482.57
2022-11-23T03:11:59.945Z,97481.60
2022-11-23T03:14:28.055Z,97479.95
2022-11-23T03:16:59.025Z,97479.45
2022-11-23T03:19:27.768Z,97471.69
2022-11-23T03:21:54.473Z,97468.87
2022-11-23T03:24:21.425Z,97466.69
2022-11-23T03:26:50.899Z,97465.99
2022-11-23T03:29:19.765Z,97463.30
2022-11-23T03:31:46.793Z,97463.70
2022-11-23T03:34:14.711Z,97462.81
2022-11-23T03:36:41.402Z,97458.50
2022-11-23T03:39:08.505Z,97452.38
2022-11-23T03:41:55.153Z,97453.06
2022-11-23T03:44:24.142Z,97447.19
2022-11-23T03:46:50.825Z,97447.92
2022-11-23T03:49:17.948Z,97449.58
2022-11-23T03:51:45.063Z,97454.06
2022-11-23T03:54:12.254Z,97452.42
2022-11-23T03:56:39.096Z,97450.79
2022-11-23T03:59:06.117Z,97452.75
2022-11-23T04:01:33.228Z,97453.19
2022-11-23T04:04:03.504Z,97449.11
2022-11-23T04:06:38.564Z,97454.48
2022-11-23T04:09:15.782Z,97459.55
2022-11-23T04:11:53.887Z,97459.21
2022-11-23T04:14:20.808Z,97460.83
2022-11-23T04:16:48.014Z,97459.04
2022-11-23T04:19:15.625Z,97461.73
2022-11-23T04:21:42.839Z,97461.52
2022-11-23T04:24:09.957Z,97459.12
2022-11-23T04:26:36.829Z,97455.52
2022-11-23T04:29:04.056Z,97451.83
2022-11-23T04:31:31.219Z,97458.90
2022-11-23T04:34:07.407Z,97455.30
2022-11-23T04:36:34.173Z,97454.19
2022-11-23T04:39:03.107Z,97455.96
2022-11-23T04:41:36.486Z,97455.73
2022-11-23T04:44:03.947Z,97457.14
2022-11-23T04:46:30.934Z,97459.17
2022-11-23T04:48:58.846Z,97456.51
2022-11-23T04:51:25.961Z,97461.30
2022-11-23T04:53:53.625Z,97461.50
2022-11-23T04:56:20.870Z,97464.41
2022-11-23T04:58:48.107Z,97463.73
2022-11-23T05:01:15.047Z,97461.25
2022-11-23T05:04:01.844Z,97462.30
2022-11-23T05:06:28.660Z,97458.19
2022-11-23T05:08:55.579Z,97460.67
2022-11-23T05:11:42.260Z,97463.02
2022-11-23T05:14:09.634Z,97469.47
2022-11-23T05:16:37.683Z,97467.48
2022-11-23T05:19:04.446Z,97465.36
2022-11-23T05:21:31.961Z,97466.48
2022-11-23T05:23:59.828Z,97459.56
2022-11-23T05:26:27.892Z,97459.37
2022-11-23T05:28:54.778Z,97452.42
2022-11-23T05:31:21.671Z,97454.84
2022-11-23T05:33:48.966Z,97459.59
2022-11-23T05:36:18.638Z,97455.86
2022-11-23T05:38:45.465Z,97447.76
2022-11-23T05:41:15.962Z,97450.91
2022-11-23T05:43:43.453Z,97449.28
2022-11-23T05:46:13.021Z,97450.11
2022-11-23T05:48:39.841Z,97454.11
2022-11-23T05:51:09.742Z,97453.66
2022-11-23T05:53:39.741Z,97455.05
2022-11-23T05:56:13.532Z,97454.11
2022-11-23T05:58:50.684Z,97456.09
2022-11-23T06:01:17.862Z,97460.52
2022-11-23T06:03:45.131Z,97466.48
2022-11-23T06:06:12.090Z,97471.87
2022-11-23T06:08:40.586Z,97477.73
2022-11-23T06:11:07.572Z,97481.59
2022-11-23T06:13:34.405Z,97489.15
2022-11-23T06:16:02.319Z,97489.13
2022-11-23T06:18:36.352Z,97492.78
2022-11-23T06:21:03.272Z,97493.10
2022-11-23T06:23:30.076Z,97496.49
2022-11-23T06:26:01.244Z,97498.42
2022-11-23T06:28:30.569Z,97502.91
2022-11-23T06:31:03.533Z,97506.47
2022-11-23T06:33:31.245Z,97506.94
2022-11-23T06:36:00.836Z,97506.13
2022-11-23T06:38:33.593Z,97503.42
2022-11-23T06:41:04.208Z,97508.38
2022-11-23T06:43:31.680Z,97505.54
2022-11-23T06:45:59.237Z,97505.30
2022-11-23T06:48:30.087Z,97507.11
2022-11-23T06:51:00.189Z,97502.09
2022-11-23T06:53:28.902Z,97504.26
2022-11-23T06:56:00.987Z,97514.06
2022-11-23T06:58:28.843Z,97510.64
2022-11-23T07:01:01.669Z,97513.11
2022-11-23T07:03:29.313Z,97510.35
2022-11-23T07:06:10.189Z,97508.68
2022-11-23T07:08:43.409Z,97515.02
2022-11-23T07:11:25.753Z,97509.83
2022-11-23T07:13:52.640Z,97510.36
2022-11-23T07:16:19.528Z,97513.73
2022-11-23T07:18:46.599Z,97515.45
2022-11-23T07:21:13.413Z,97520.73
2022-11-23T07:23:41.608Z,97525.02
2022-11-23T07:26:09.327Z,97530.15
2022-11-23T07:28:36.370Z,97527.98
2022-11-23T07:31:03.221Z,97528.58
2022-11-23T07:33:30.400Z,97530.53
2022-11-23T07:36:02.613Z,97532.74
2022-11-23T07:38:31.057Z,97531.84
2022-11-23T07:41:00.976Z,97527.65
2022-11-23T07:43:42.958Z,97524.77
2022-11-23T07:46:09.712Z,97522.11
2022-11-23T07:48:36.836Z,97525.26
2022-11-23T07:51:03.774Z,97532.39
2022-11-23T07:53:30.616Z,97527.90
2022-11-23T07:55:58.808Z,97530.45
2022-11-23T07:58:25.715Z,97528.29
2022-11-23T08:00:53.496Z,97527.84
2022-11-23T08:03:27.661Z,97527.38
2022-11-23T08:05:56.067Z,97531.20
2022-11-23T08:08:23.446Z,97532.04
2022-11-23T08:10:53.873Z,97530.84
2022-11-23T08:13:22.364Z,97538.06
2022-11-23T08:15:54.772Z,97536.23
2022-11-23T08:18:24.474Z,97534.86
2022-11-23T08:20:51.466Z,97531.32
2022-11-23T08:23:18.849Z,97528.30
2022-11-23T08:25:46.335Z,97527.67
2022-11-23T08:28:13.359Z,97524.21
2022-11-23T08:30:40.211Z,97525.44
2022-11-23T08:33:08.312Z,97524.70
2022-11-23T08:35:36.961Z,97523.09
2022-11-23T08:38:05.103Z,97523.14
2022-11-23T08:40:32.249Z,97526.18
2022-11-23T08:42:59.328Z,97522.81
2022-11-23T08:45:26.602Z,97520.17
2022-11-23T08:47:54.140Z,97515.54
2022-11-23T08:50:21.458Z,97514.16
2022-11-23T08:52:48.122Z,97514.77
2022-11-23T08:55:14.949Z,97517.17
2022-11-23T08:57:42.072Z,97517.41
2022-11-23T09:00:09.523Z,97522.80
2022-11-23T09:02:36.346Z,97520.91
2022-11-23T09:05:04.731Z,97517.98
2022-11-23T09:07:32.624Z,97510.60
2022-11-23T09:09:59.370Z,97508.00
2022-11-23T09:12:26.034Z,97501.27
2022-11-23T09:14:53.387Z,97506.89
2022-11-23T09:17:20.056Z,97506.38
2022-11-23T09:19:46.868Z,97509.36
2022-11-23T09:22:13.654Z,97509.85
2022-11-23T09:24:40.400Z,97509.46
2022-11-23T09:27:07.260Z,97512.95
2022-11-23T09:29:34.042Z,97518.80
2022-11-23T09:32:02.593Z,97519.35
2022-11-23T09:34:29.633Z,97510.81
2022-11-23T09:36:57.284Z,97511.54
2022-11-23T09:39:24.143Z,97512.27
2022-11-23T09:42:01.321Z,97508.11
2022-11-23T09:44:35.115Z,97501.00
2022-11-23T09:47:08.057Z,97497.01
2022-11-23T09:49:50.132Z,97489.93
2022-11-23T09:52:21.053Z,97491.27
2022-11-23T09:54:49.920Z,97489.30
2022-11-23T09:57:21.798Z,97476.59
2022-11-23T10:00:08.119Z,97477.15
2022-11-23T10:02:40.683Z,97477.02
2022-11-23T10:05:16.895Z,97469.31
2022-11-23T10:08:14.337Z,97465.50
2022-11-23T10:10:44.518Z,97466.11
2022-11-23T10:13:28.125Z,97460.67
2022-11-23T10:16:03.187Z,97456.15
2022-11-23T10:18:29.901Z,97459.30
2022-11-23T10:21:19.953Z,97456.27
2022-11-23T10:23:55.670Z,97450.55
2022-11-23T10:26:34.304Z,97458.17
2022-11-23T10:29:13.666Z,97457.24
2022-11-23T10:31:43.836Z,97455.13
2022-11-23T10:34:14.911Z,97453.73
2022-11-23T10:36:42.021Z,97457.17
2022-11-23T10:39:22.960Z,97457.50
2022-11-23T10:41:51.979Z,97453.85
2022-11-23T10:44:18.713Z,97452.45
2022-11-23T10:47:00.814Z,97454.08
2022-11-23T10:49:30.852Z,97454.58
2022-11-23T10:51:59.977Z,97446.58
2022-11-23T10:54:32.446Z,97445.36
2022-11-23T10:57:02.051Z,97440.27
2022-11-23T10:59:34.789Z,97440.11
2022-11-23T11:02:19.191Z,97437.70
2022-11-23T11:04:47.993Z,97436.62
2022-11-23T11:07:26.878Z,97440.90
2022-11-23T11:09:57.176Z,97440.55
2022-11-23T11:12:24.739Z,97442.33
2022-11-23T11:15:05.193Z,97440.14
2022-11-23T11:17:39.496Z,97439.73
2022-11-23T11:20:25.249Z,97441.27
2022-11-23T11:22:52.024Z,97444.55
2022-11-23T11:25:36.597Z,97439.45
2022-11-23T11:28:17.969Z,97436.07
2022-11-23T11:31:03.353Z,97435.83
2022-11-23T11:33:42.307Z,97438.61
2022-11-23T11:36:14.053Z,97438.34
2022-11-23T11:39:01.359Z,97440.19
2022-11-23T11:41:32.412Z,97441.47
2022-11-23T11:44:09.223Z,97446.41
2022-11-23T11:46:44.175Z,97444.63
2022-11-23T11:49:29.779Z,97446.02
2022-11-23T11:52:15.569Z,97439.73
2022-11-23T11:54:58.311Z,97430.70
2022-11-23T11:57:34.509Z,97434.17
2022-11-23T12:00:05.615Z,97430.99
2022-11-23T12:02:57.702Z,97441.69
2022-11-23T12:05:31.064Z,97447.82
2022-11-23T12:08:20.780Z,97444.36
2022-11-23T12:10:50.813Z,97443.77
2022-11-23T12:13:21.545Z,97444.61
2022-11-23T12:15:56.167Z,97440.97
2022-11-23T12:18:45.658Z,97438.95
2022-11-23T12:21:42.952Z,97442.69
2022-11-23T12:24:38.813Z,97445.17
2022-11-23T12:27:16.009Z,97455.05
2022-11-23T12:30:00.037Z,97448.14
2022-11-23T12:32:38.843Z,97449.38
2022-11-23T12:35:21.983Z,97452.90
2022-11-23T12:38:19.412Z,97451.10
2022-11-23T12:41:08.918Z,97453.54
2022-11-23T12:43:52.241Z,97463.09
2022-11-23T12:46:41.164Z,97467.70
2022-11-23T12:49:26.808Z,97471.50
2022-11-23T12:52:10.387Z,97472.92
2022-11-23T12:55:06.657Z,97475.39
2022-11-23T12:57:43.151Z,97473.31
2022-11-23T13:00:20.571Z,97472.30
2022-11-23T13:03:15.329Z,97472.30
2022-11-23T13:05:56.038Z,97471.77
2022-11-23T13:08:25.030Z,97475.59
2022-11-23T13:11:08.562Z,97481.13
2022-11-23T13:14:02.481Z,97486.46
2022-11-23T13:16:36.851Z,97490.55
2022-11-23T13:19:28.974Z,97493.83
2022-11-23T13:21:56.104Z,97495.27
2022-11-23T13:24:33.536Z,97490.21
2022-11-23T13:27:28.309Z,97491.86
2022-11-23T13:30:07.519Z,97487.41
2022-11-23T13:32:47.610Z,97485.63
2022-11-23T13:35:21.773Z,97481.98
2022-11-23T13:38:03.778Z,97488.02
2022-11-23T13:40:33.882Z,97491.80
2022-11-23T13:43:04.884Z,97487.67
2022-11-23T13:45:36.518Z,97483.31
2022-11-23T13:48:19.296Z,97484.46
2022-11-23T13:50:59.944Z,97487.14
2022-11-23T13:53:29.397Z,97487.77
2022-11-23T13:56:00.475Z,97482.77
2022-11-23T13:58:27.322Z,97489.56
2022-11-23T14:00:58.068Z,97492.88
2022-11-23T14:03:47.573Z,97492.17
2022-11-23T14:06:24.579Z,97492.56
2022-11-23T14:09:00.888Z,97491.51
2022-11-23T14:11:28.419Z,97492.06
2022-11-23T14:14:02.070Z,97502.67
2022-11-23T14:16:36.903Z,97502.26
2022-11-23T14:19:21.089Z,97493.86
2022-11-23T14:22:03.827Z,97490.06
2022-11-23T14:24:46.130Z,97490.43
2022-11-23T14:27:46.692Z,97492.05
2022-11-23T14:30:28.730Z,97497.21
2022-11-23T14:33:10.377Z,97501.79
2022-11-23T14:36:00.482Z,97502.86
2022-11-23T14:38:43.118Z,97507.02
2022-11-23T14:41:17.730Z,97501.27
2022-11-23T14:43:46.242Z,97498.20
2022-11-23T14:46:19.298Z,97506.17
2022-11-23T14:48:48.177Z,97505.61
2022-11-23T14:51:30.129Z,97512.63
2022-11-23T14:54:00.661Z,97518.28
2022-11-23T14:56:38.068Z,97519.62
2022-11-23T14:59:20.416Z,97524.36
2022-11-23T15:01:52.293Z,97525.42
2022-11-23T15:04:24.480Z,97527.10
2022-11-23T15:06:56.581Z,97533.21
2022-11-23T15:09:32.704Z,97535.32
2022-11-23T15:12:19.821Z,97533.54
2022-11-23T15:14:47.882Z,97535.63
2022-11-23T15:17:28.001Z,97530.88
2022-11-23T15:19:56.868Z,97533.05
2022-11-23T15:22:24.752Z,97539.60
2022-11-23T15:24:51.612Z,97534.30
2022-11-23T15:27:25.838Z,97528.16
2022-11-23T15:29:56.730Z,97523.63
2022-11-23T15:32:32.775Z,97521.11
2022-11-23T15:35:04.581Z,97520.98
2022-11-23T15:37:32.719Z,97521.08
2022-11-23T15:40:00.237Z,97521.94
2022-11-23T15:42:28.260Z,97524.93
2022-11-23T15:47:42.111Z,97532.30
2022-11-23T15:50:10.182Z,97530.42
2022-11-23T15:52:38.162Z,97532.85
2022-11-23T15:54:53.524Z,97525.91
2022-11-23T15:55:09.818Z,97539.73
2022-11-23T15:57:39.605Z,97534.16
2022-11-23T16:00:08.041Z,97533.81
2022-11-23T16:02:42.053Z,97538.36
2022-11-23T16:05:16.349Z,97537.92
2022-11-23T16:07:59.539Z,97543.13
2022-11-23T16:10:28.953Z,97543.44
2022-11-23T16:12:58.767Z,97537.16
2022-11-23T16:15:41.640Z,97537.28
2022-11-23T16:18:25.080Z,97537.06
2022-11-23T16:20:56.732Z,97540.20
2022-11-23T16:23:27.777Z,97542.56
2022-11-23T16:25:57.085Z,97541.31
2022-11-23T16:28:29.676Z,97545.33
2022-11-23T16:30:57.831Z,97544.73
2022-11-23T16:33:25.359Z,97555.20
2022-11-23T16:35:52.789Z,97554.55
2022-11-23T16:38:20.036Z,97555.66
2022-11-23T16:40:50.159Z,97553.20
2022-11-23T16:43:18.221Z,97551.64
2022-11-23T16:45:47.615Z,97552.78
2022-11-23T16:48:39.107Z,97549.52
2022-11-23T16:51:06.827Z,97550.71
2022-11-23T16:53:53.500Z,97554.27
2022-11-23T16:56:23.062Z,97562.01
2022-11-23T16:58:50.682Z,97559.37
2022-11-23T17:01:21.860Z,97554.47
2022-11-23T17:03:49.136Z,97547.98
2022-11-23T17:06:17.557Z,97547.10
2022-11-23T17:08:45.571Z,97553.96
2022-11-23T17:11:20.197Z,97559.25
2022-11-23T17:13:48.554Z,97560.95
2022-11-23T17:16:18.010Z,97567.02
2022-11-23T17:18:45.478Z,97563.48
2022-11-23T17:21:12.565Z,97564.97
2022-11-23T17:23:41.057Z,97555.02
2022-11-23T17:26:34.242Z,97551.40
2022-11-23T17:29:03.518Z,97540.94
2022-11-23T17:31:30.912Z,97539.82
2022-11-23T17:33:57.767Z,97539.36
2022-11-23T17:36:27.191Z,97544.40
2022-11-23T17:38:54.197Z,97552.66
2022-11-23T17:41:21.137Z,97557.96
2022-11-23T17:43:47.832Z,97559.52
2022-11-23T17:46:20.809Z,97558.03
2022-11-23T17:48:54.180Z,97559.12
2022-11-23T17:51:20.998Z,97564.28
2022-11-23T17:53:48.134Z,97560.46
2022-11-23T17:56:17.923Z,97562.75
2022-11-23T17:58:44.749Z,97567.28
2022-11-23T18:01:14.066Z,97569.98
2022-11-23T18:03:42.061Z,97573.78
2022-11-23T18:06:14.624Z,97569.36
2022-11-23T18:08:42.614Z,97571.77
2022-11-23T18:11:09.616Z,97572.23
2022-11-23T18:13:37.037Z,97570.91
2022-11-23T18:16:04.645Z,97578.09
2022-11-23T18:18:32.242Z,97577.65
2022-11-23T18:20:59.625Z,97577.30
2022-11-23T18:23:27.374Z,97575.55
2022-11-23T18:26:04.403Z,97570.52
2022-11-23T18:28:31.603Z,97563.73
2022-11-23T18:30:58.371Z,97567.10
2022-11-23T18:33:25.183Z,97570.50
2022-11-23T18:35:59.341Z,97563.85
2022-11-23T18:38:32.093Z,97563.13
2022-11-23T18:41:01.452Z,97558.19
2022-11-23T18:43:30.401Z,97560.89
2022-11-23T18:45:57.332Z,97574.56
2022-11-23T18:48:25.158Z,97580.92
2022-11-23T18:50:54.845Z,97579.88
2022-11-23T18:53:22.159Z,97580.84
2022-11-23T18:55:49.701Z,97580.60
2022-11-23T18:58:16.458Z,97575.27
2022-11-23T19:00:43.259Z,97564.48
2022-11-23T19:03:10.053Z,97565.76
2022-11-23T19:05:37.163Z,97562.10
2022-11-23T19:08:09.140Z,97564.17
2022-11-23T19:10:51.610Z,97566.07
2022-11-23T19:13:20.088Z,97567.95
2022-11-23T19:15:47.948Z,97562.97
2022-11-23T19:18:15.706Z,97559.83
2022-11-23T19:20:58.331Z,97569.45
2022-11-23T19:23:40.646Z,97566.63
2022-11-23T19:26:09.025Z,97564.23
2022-11-23T19:28:51.587Z,97569.73
2022-11-23T19:31:21.477Z,97568.73
2022-11-23T19:33:50.271Z,97569.85
2022-11-23T19:36:19.364Z,97565.80
2022-11-23T19:38:48.142Z,97565.70
2022-11-23T19:41:16.002Z,97562.73
2022-11-23T19:43:44.908Z,97558.88
2022-11-23T19:46:14.143Z,97557.73
2022-11-23T19:48:42.205Z,97558.68
2022-11-23T19:51:14.161Z,97559.44
2022-11-23T19:53:42.811Z,97559.77
2022-11-23T19:56:12.936Z,97558.23
2022-11-23T19:58:41.117Z,97558.00
2022-11-23T20:01:11.512Z,97564.52
2022-11-23T20:03:40.640Z,97568.42
2022-11-23T20:06:12.150Z,97566.88
2022-11-23T20:08:39.044Z,97570.30
2022-11-23T20:11:07.690Z,97572.71
2022-11-23T20:13:36.018Z,97582.16
2022-11-23T20:16:04.971Z,97585.89
2022-11-23T20:18:32.453Z,97587.57
2022-11-23T20:20:59.497Z,97592.58
2022-11-23T20:23:28.687Z,97589.45
2022-11-23T20:26:14.802Z,97593.05
2022-11-23T20:28:42.305Z,97597.05
2022-11-23T20:31:20.067Z,97598.70
2022-11-23T20:33:50.624Z,97599.55
2022-11-23T20:36:19.280Z,97598.77
2022-11-23T20:38:46.551Z,97602.20
2022-11-23T20:41:17.626Z,97601.70
2022-11-23T20:43:47.008Z,97606.24
2022-11-23T20:46:26.384Z,97601.91
2022-11-23T20:49:02.623Z,97602.23
2022-11-23T20:51:31.185Z,97603.98
2022-11-23T20:53:58.775Z,97602.56
2022-11-23T20:56:41.117Z,97608.19
2022-11-23T20:59:07.859Z,97609.31
2022-11-23T21:01:34.724Z,97610.20
2022-11-23T21:04:01.550Z,97607.40
2022-11-23T21:06:28.602Z,97603.11
2022-11-23T21:08:55.839Z,97608.80
2022-11-23T21:11:40.539Z,97610.22
2022-11-23T21:14:17.444Z,97611.02
2022-11-23T21:17:05.737Z,97615.60
2022-11-23T21:19:37.709Z,97618.13
2022-11-23T21:22:08.188Z,97616.73
2022-11-23T21:24:36.001Z,97616.08
2022-11-23T21:27:06.027Z,97616.88
2022-11-23T21:29:33.394Z,97616.98
2022-11-23T21:32:01.628Z,97623.05
2022-11-23T21:34:29.991Z,97628.97
2022-11-23T21:36:57.608Z,97632.85
2022-11-23T21:39:24.787Z,97633.08
2022-11-23T21:41:53.520Z,97638.55
2022-11-23T21:44:22.189Z,97639.14
2022-11-23T21:46:49.060Z,97632.94
2022-11-23T21:49:16.063Z,97635.42
2022-11-23T21:51:43.778Z,97636.80
2022-11-23T21:54:14.225Z,97636.56
2022-11-23T21:56:43.459Z,97632.88
2022-11-23T21:59:10.387Z,97631.49
2022-11-23T22:01:38.200Z,97633.92
2022-11-23T22:04:10.007Z,97634.13
2022-11-23T22:06:37.835Z,97632.38
2022-11-23T22:09:06.615Z,97635.69
2022-11-23T22:11:35.370Z,97637.39
2022-11-23T22:14:04.961Z,97638.86
2022-11-23T22:16:34.961Z,97633.98
2022-11-23T22:19:02.349Z,97631.27
2022-11-23T22:21:33.836Z,97628.95
2022-11-23T22:24:00.805Z,97630.21
2022-11-23T22:26:27.993Z,97624.72
2022-11-23T22:28:55.931Z,97622.52
2022-11-23T22:31:25.006Z,97624.76
2022-11-23T22:33:53.471Z,97627.42
2022-11-23T22:36:23.162Z,97626.84
2022-11-23T22:39:01.716Z,97627.90
2022-11-23T22:41:30.736Z,97627.68
2022-11-23T22:43:57.610Z,97621.31
2022-11-23T22:46:25.689Z,97632.84
2022-11-23T22:48:53.677Z,97634.39
2022-11-23T22:51:22.532Z,97631.72
2022-11-23T22:53:54.717Z,97633.83
2022-11-23T22:56:22.082Z,97633.52
2022-11-23T22:58:49.975Z,97632.88
2022-11-23T23:01:21.214Z,97629.95
2022-11-23T23:03:48.554Z,97631.80
2022-11-23T23:06:18.037Z,97627.18
2022-11-23T23:08:45.873Z,97627.48
2022-11-23T23:11:14.538Z,97626.27
2022-11-23T23:13:42.281Z,97632.81
2022-11-23T23:16:12.895Z,97631.56
2022-11-23T23:18:40.939Z,97634.52
2022-11-23T23:21:11.129Z,97635.98
2022-11-23T23:23:38.691Z,97634.77
2022-11-23T23:26:06.410Z,97635.02
2022-11-23T23:28:34.348Z,97634.34
2022-11-23T23:31:17.161Z,97631.15
2022-11-23T23:33:45.415Z,97630.30
2022-11-23T23:36:15.706Z,97627.08
2022-11-23T23:38:43.251Z,97622.42
2022-11-23T23:41:11.344Z,97623.04
2022-11-23T23:43:39.002Z,97627.70
2022-11-23T23:46:08.478Z,97626.23
2022-11-23T23:48:37.342Z,97627.58
2022-11-23T23:51:15.515Z,97629.27
2022-11-23T23:53:43.743Z,97632.27
2022-11-23T23:56:15.059Z,97630.25
2022-11-23T23:58:42.572Z,97631.30
